4XCWM LLHA-LLHZ
Flight info
| Callsign | 4XCWM |
|---|---|
| Flight time | 0h 18m |
| Altitude | 2500 |
| Route | GALIM DAROM HOTRM BOREN FRDIS HADRA SHARO DEROR BAZRA |
| Aircraft | C182/L-S/5100 |
Departure
| Time | 2026-04-11 18:04 |
|---|---|
| Airport | Uri Michaeli Haifa International Airport (LLHA) |
Arrival
| Time | 2026-04-11 18:23 |
|---|---|
| Airport | Herzliya Airport (LLHZ) |
| Time | Latitude | Longitude | Altitude | Speed | Heading |
|---|---|---|---|---|---|
| 2026-04-11 17:57 | 32.81116 | 35.04039 | 15 ft | 0 kts | 340° |
| 2026-04-11 18:00 | 32.81117 | 35.04049 | 15 ft | 5 kts | 133° |
| 2026-04-11 18:00 | 32.81122 | 35.04121 | 14 ft | 15 kts | 70° |
| 2026-04-11 18:01 | 32.81158 | 35.04241 | 14 ft | 0 kts | 66° |
| 2026-04-11 18:01 | 32.81153 | 35.04305 | 13 ft | 19 kts | 138° |
| 2026-04-11 18:01 | 32.80990 | 35.04379 | 13 ft | 30 kts | 159° |
| 2026-04-11 18:02 | 32.80865 | 35.04436 | 12 ft | 0 kts | 159° |
| 2026-04-11 18:02 | 32.80768 | 35.04475 | 11 ft | 34 kts | 161° |
| 2026-04-11 18:02 | 32.80601 | 35.04557 | 9 ft | 5 kts | 43° |
| 2026-04-11 18:02 | 32.80606 | 35.04557 | 9 ft | 5 kts | 339° |
| 2026-04-11 18:03 | 32.80774 | 35.04479 | 11 ft | 51 kts | 339° |
| 2026-04-11 18:03 | 32.81245 | 35.04287 | 90 ft | 84 kts | 334° |
| 2026-04-11 18:03 | 32.81870 | 35.04025 | 231 ft | 108 kts | 332° |
| 2026-04-11 18:03 | 32.82643 | 35.03701 | 378 ft | 124 kts | 334° |
| 2026-04-11 18:04 | 32.83339 | 35.03126 | 599 ft | 122 kts | 307° |
| 2026-04-11 18:04 | 32.83671 | 35.02290 | 973 ft | 106 kts | 270° |
| 2026-04-11 18:04 | 32.83692 | 35.01396 | 1210 ft | 111 kts | 270° |
| 2026-04-11 18:04 | 32.83759 | 35.00489 | 1500 ft | 113 kts | 277° |
| 2026-04-11 18:05 | 32.83995 | 34.99563 | 1705 ft | 122 kts | 282° |
| 2026-04-11 18:05 | 32.84124 | 34.98529 | 1772 ft | 133 kts | 267° |
| 2026-04-11 18:05 | 32.83998 | 34.97432 | 1872 ft | 135 kts | 252° |
| 2026-04-11 18:05 | 32.83677 | 34.96397 | 2026 ft | 136 kts | 246° |
| 2026-04-11 18:06 | 32.83141 | 34.95435 | 1937 ft | 146 kts | 224° |
| 2026-04-11 18:06 | 32.82205 | 34.94992 | 1879 ft | 156 kts | 183° |
| 2026-04-11 18:06 | 32.81141 | 34.95145 | 1951 ft | 150 kts | 181° |
| 2026-04-11 18:06 | 32.80118 | 34.95269 | 2010 ft | 149 kts | 179° |
| 2026-04-11 18:07 | 32.79073 | 34.95364 | 2040 ft | 151 kts | 182° |
| 2026-04-11 18:07 | 32.78043 | 34.95384 | 2098 ft | 149 kts | 186° |
| 2026-04-11 18:07 | 32.77007 | 34.95372 | 2166 ft | 148 kts | 184° |
| 2026-04-11 18:07 | 32.75959 | 34.95229 | 2077 ft | 154 kts | 196° |
| 2026-04-11 18:08 | 32.74920 | 34.94924 | 2037 ft | 156 kts | 194° |
| 2026-04-11 18:08 | 32.73833 | 34.94782 | 1983 ft | 157 kts | 190° |
| 2026-04-11 18:08 | 32.72814 | 34.94646 | 2070 ft | 140 kts | 191° |
| 2026-04-11 18:08 | 32.71807 | 34.94817 | 2120 ft | 153 kts | 163° |
| 2026-04-11 18:09 | 32.70927 | 34.95555 | 2183 ft | 161 kts | 140° |
| 2026-04-11 18:09 | 32.70042 | 34.96408 | 2074 ft | 163 kts | 160° |
| 2026-04-11 18:09 | 32.68985 | 34.96731 | 2167 ft | 153 kts | 181° |
| 2026-04-11 18:09 | 32.67960 | 34.96635 | 2327 ft | 146 kts | 193° |
| 2026-04-11 18:10 | 32.66901 | 34.96457 | 2250 ft | 155 kts | 192° |
| 2026-04-11 18:10 | 32.65806 | 34.96236 | 2145 ft | 158 kts | 193° |
| 2026-04-11 18:10 | 32.64730 | 34.96054 | 2103 ft | 161 kts | 191° |
| 2026-04-11 18:10 | 32.63617 | 34.95921 | 2041 ft | 161 kts | 191° |
| 2026-04-11 18:11 | 32.62542 | 34.95740 | 2198 ft | 151 kts | 191° |
| 2026-04-11 18:11 | 32.61530 | 34.95520 | 2184 ft | 156 kts | 199° |
| 2026-04-11 18:11 | 32.60476 | 34.95128 | 2095 ft | 157 kts | 201° |
| 2026-04-11 18:11 | 32.59459 | 34.94720 | 2171 ft | 152 kts | 200° |
| 2026-04-11 18:12 | 32.58442 | 34.94361 | 2131 ft | 157 kts | 200° |
| 2026-04-11 18:12 | 32.57493 | 34.94038 | 1933 ft | 136 kts | 200° |
| 2026-04-11 18:12 | 32.56592 | 34.93725 | 1830 ft | 127 kts | 200° |
| 2026-04-11 18:12 | 32.55727 | 34.93389 | 1899 ft | 125 kts | 202° |
| 2026-04-11 18:13 | 32.54860 | 34.93129 | 1887 ft | 140 kts | 196° |
| 2026-04-11 18:13 | 32.53872 | 34.92924 | 1977 ft | 148 kts | 184° |
| 2026-04-11 18:13 | 32.52837 | 34.93023 | 2087 ft | 148 kts | 179° |
| 2026-04-11 18:13 | 32.51769 | 34.93101 | 1980 ft | 159 kts | 183° |
| 2026-04-11 18:14 | 32.50688 | 34.92909 | 1993 ft | 158 kts | 194° |
| 2026-04-11 18:14 | 32.49613 | 34.92669 | 1991 ft | 159 kts | 194° |
| 2026-04-11 18:14 | 32.48537 | 34.92422 | 2053 ft | 150 kts | 201° |
| 2026-04-11 18:14 | 32.47544 | 34.91971 | 1956 ft | 158 kts | 207° |
| 2026-04-11 18:15 | 32.46578 | 34.91425 | 1948 ft | 154 kts | 214° |
| 2026-04-11 18:15 | 32.45640 | 34.90830 | 1861 ft | 158 kts | 198° |
| 2026-04-11 18:15 | 32.44544 | 34.90891 | 1837 ft | 160 kts | 177° |
| 2026-04-11 18:15 | 32.43428 | 34.90877 | 1735 ft | 161 kts | 189° |
| 2026-04-11 18:16 | 32.42322 | 34.90765 | 1720 ft | 159 kts | 189° |
| 2026-04-11 18:16 | 32.41223 | 34.90658 | 1702 ft | 157 kts | 190° |
| 2026-04-11 18:16 | 32.40139 | 34.90494 | 1750 ft | 152 kts | 189° |
| 2026-04-11 18:16 | 32.39096 | 34.90520 | 1877 ft | 151 kts | 177° |
| 2026-04-11 18:17 | 32.38074 | 34.90723 | 2006 ft | 149 kts | 175° |
| 2026-04-11 18:17 | 32.37022 | 34.90893 | 2024 ft | 154 kts | 179° |
| 2026-04-11 18:17 | 32.35981 | 34.90953 | 2097 ft | 151 kts | 186° |
| 2026-04-11 18:17 | 32.34934 | 34.90872 | 2144 ft | 150 kts | 188° |
| 2026-04-11 18:18 | 32.33903 | 34.90791 | 2204 ft | 148 kts | 188° |
| 2026-04-11 18:18 | 32.32873 | 34.90708 | 2233 ft | 148 kts | 188° |
| 2026-04-11 18:18 | 32.31852 | 34.90630 | 2337 ft | 146 kts | 188° |
| 2026-04-11 18:18 | 32.30879 | 34.90338 | 2383 ft | 146 kts | 197° |
| 2026-04-11 18:19 | 32.29873 | 34.90097 | 2396 ft | 148 kts | 200° |
| 2026-04-11 18:19 | 32.28874 | 34.89795 | 2415 ft | 150 kts | 194° |
| 2026-04-11 18:19 | 32.27845 | 34.89624 | 2317 ft | 157 kts | 191° |
| 2026-04-11 18:19 | 32.26737 | 34.89482 | 1901 ft | 169 kts | 194° |
| 2026-04-11 18:20 | 32.25579 | 34.89212 | 1685 ft | 166 kts | 195° |
| 2026-04-11 18:20 | 32.24501 | 34.88938 | 1816 ft | 153 kts | 196° |
| 2026-04-11 18:20 | 32.23437 | 34.88661 | 1631 ft | 162 kts | 196° |
| 2026-04-11 18:20 | 32.22331 | 34.88477 | 1572 ft | 160 kts | 191° |
| 2026-04-11 18:21 | 32.21330 | 34.88050 | 1616 ft | 147 kts | 221° |
| 2026-04-11 18:21 | 32.20673 | 34.87064 | 1400 ft | 155 kts | 237° |
| 2026-04-11 18:21 | 32.19980 | 34.86295 | 1196 ft | 122 kts | 204° |
| 2026-04-11 18:21 | 32.19162 | 34.86240 | 1009 ft | 121 kts | 196° |
| 2026-04-11 18:22 | 32.18419 | 34.85759 | 771 ft | 119 kts | 215° |
| 2026-04-11 18:22 | 32.17789 | 34.85253 | 492 ft | 102 kts | 229° |
| 2026-04-11 18:22 | 32.17718 | 34.84549 | 357 ft | 84 kts | 285° |
| 2026-04-11 18:22 | 32.17864 | 34.84037 | 199 ft | 52 kts | 283° |
| 2026-04-11 18:23 | 32.17958 | 34.83712 | 119 ft | 32 kts | 283° |
| 2026-04-11 18:23 | 32.17960 | 34.83583 | 111 ft | 13 kts | 258° |
| 2026-04-11 18:23 | 32.17990 | 34.83470 | 108 ft | 18 kts | 289° |
| 2026-04-11 18:23 | 32.18039 | 34.83304 | 104 ft | 25 kts | 290° |
| 2026-04-11 18:24 | 32.18101 | 34.83089 | 99 ft | 30 kts | 292° |
| 2026-04-11 18:24 | 32.18184 | 34.82863 | 96 ft | 27 kts | 290° |
| 2026-04-11 18:24 | 32.18185 | 34.82802 | 96 ft | 6 kts | 271° |
| 2026-04-11 18:24 | 32.18179 | 34.82790 | 97 ft | 0 kts | 100° |
| 2026-04-11 18:25 | 32.18179 | 34.82791 | 97 ft | 0 kts | 109° |